sensor_id;sensor_type;location;lat;lon;timestamp;P1;durP1;ratioP1;P2;durP2;ratioP2
39518;SDS011;25200;53.394;10.414;2023-04-28T00:00:17;11.60;;;5.47;;
39518;SDS011;25200;53.394;10.414;2023-04-28T00:02:43;9.27;;;5.38;;
39518;SDS011;25200;53.394;10.414;2023-04-28T00:05:11;11.45;;;5.07;;
39518;SDS011;25200;53.394;10.414;2023-04-28T00:07:36;8.98;;;4.90;;
39518;SDS011;25200;53.394;10.414;2023-04-28T00:10:02;8.23;;;4.57;;
39518;SDS011;25200;53.394;10.414;2023-04-28T00:12:27;11.85;;;4.57;;
39518;SDS011;25200;53.394;10.414;2023-04-28T00:14:53;10.45;;;5.22;;
39518;SDS011;25200;53.394;10.414;2023-04-28T00:17:19;8.52;;;4.50;;
39518;SDS011;25200;53.394;10.414;2023-04-28T00:19:44;7.70;;;4.32;;
39518;SDS011;25200;53.394;10.414;2023-04-28T00:22:10;8.32;;;4.60;;
39518;SDS011;25200;53.394;10.414;2023-04-28T00:24:36;9.57;;;4.70;;
39518;SDS011;25200;53.394;10.414;2023-04-28T00:27:01;10.15;;;4.57;;
39518;SDS011;25200;53.394;10.414;2023-04-28T00:29:27;7.55;;;4.20;;
39518;SDS011;25200;53.394;10.414;2023-04-28T00:31:53;9.15;;;4.63;;
39518;SDS011;25200;53.394;10.414;2023-04-28T00:34:18;9.05;;;4.60;;
39518;SDS011;25200;53.394;10.414;2023-04-28T00:36:44;11.85;;;4.53;;
39518;SDS011;25200;53.394;10.414;2023-04-28T00:39:10;9.23;;;5.38;;
39518;SDS011;25200;53.394;10.414;2023-04-28T00:41:36;8.15;;;4.68;;
39518;SDS011;25200;53.394;10.414;2023-04-28T00:44:01;14.13;;;5.43;;
39518;SDS011;25200;53.394;10.414;2023-04-28T00:46:28;10.77;;;5.60;;
39518;SDS011;25200;53.394;10.414;2023-04-28T00:48:56;10.77;;;5.35;;
39518;SDS011;25200;53.394;10.414;2023-04-28T00:51:22;11.95;;;5.60;;
39518;SDS011;25200;53.394;10.414;2023-04-28T00:53:49;13.15;;;5.55;;
39518;SDS011;25200;53.394;10.414;2023-04-28T00:56:15;9.35;;;5.13;;
39518;SDS011;25200;53.394;10.414;2023-04-28T00:58:41;9.25;;;4.70;;
39518;SDS011;25200;53.394;10.414;2023-04-28T01:01:07;9.30;;;5.00;;
39518;SDS011;25200;53.394;10.414;2023-04-28T01:03:35;9.20;;;4.82;;
39518;SDS011;25200;53.394;10.414;2023-04-28T01:06:05;10.02;;;4.70;;
39518;SDS011;25200;53.394;10.414;2023-04-28T01:08:33;9.70;;;4.90;;
39518;SDS011;25200;53.394;10.414;2023-04-28T01:11:00;9.63;;;4.38;;
39518;SDS011;25200;53.394;10.414;2023-04-28T01:13:26;8.95;;;4.45;;
39518;SDS011;25200;53.394;10.414;2023-04-28T01:15:52;8.35;;;4.50;;
39518;SDS011;25200;53.394;10.414;2023-04-28T01:18:19;8.50;;;4.60;;
39518;SDS011;25200;53.394;10.414;2023-04-28T01:20:45;9.25;;;4.65;;
39518;SDS011;25200;53.394;10.414;2023-04-28T01:23:11;10.95;;;4.25;;
39518;SDS011;25200;53.394;10.414;2023-04-28T01:25:38;9.40;;;4.32;;
39518;SDS011;25200;53.394;10.414;2023-04-28T01:28:04;9.80;;;3.83;;
39518;SDS011;25200;53.394;10.414;2023-04-28T01:30:30;7.60;;;4.20;;
39518;SDS011;25200;53.394;10.414;2023-04-28T01:32:55;12.27;;;4.40;;
39518;SDS011;25200;53.394;10.414;2023-04-28T01:35:21;8.68;;;4.22;;
39518;SDS011;25200;53.394;10.414;2023-04-28T01:37:47;7.78;;;4.18;;
39518;SDS011;25200;53.394;10.414;2023-04-28T01:40:12;12.43;;;4.10;;
39518;SDS011;25200;53.394;10.414;2023-04-28T01:42:38;9.68;;;4.25;;
39518;SDS011;25200;53.394;10.414;2023-04-28T01:45:04;9.68;;;4.10;;
39518;SDS011;25200;53.394;10.414;2023-04-28T01:47:30;8.70;;;4.40;;
39518;SDS011;25200;53.394;10.414;2023-04-28T01:49:56;7.80;;;3.92;;
39518;SDS011;25200;53.394;10.414;2023-04-28T01:52:21;8.82;;;4.38;;
39518;SDS011;25200;53.394;10.414;2023-04-28T01:54:48;9.02;;;4.28;;
39518;SDS011;25200;53.394;10.414;2023-04-28T01:57:15;8.60;;;4.03;;
39518;SDS011;25200;53.394;10.414;2023-04-28T01:59:41;9.27;;;4.10;;
39518;SDS011;25200;53.394;10.414;2023-04-28T02:02:06;10.25;;;4.10;;
39518;SDS011;25200;53.394;10.414;2023-04-28T02:04:32;8.13;;;3.65;;
39518;SDS011;25200;53.394;10.414;2023-04-28T02:06:58;7.57;;;4.40;;
39518;SDS011;25200;53.394;10.414;2023-04-28T02:09:24;7.25;;;3.53;;
39518;SDS011;25200;53.394;10.414;2023-04-28T02:11:49;9.68;;;4.13;;
39518;SDS011;25200;53.394;10.414;2023-04-28T02:14:15;9.32;;;3.97;;
39518;SDS011;25200;53.394;10.414;2023-04-28T02:16:41;7.45;;;3.58;;
39518;SDS011;25200;53.394;10.414;2023-04-28T02:19:07;7.22;;;3.45;;
39518;SDS011;25200;53.394;10.414;2023-04-28T02:21:32;8.23;;;3.80;;
39518;SDS011;25200;53.394;10.414;2023-04-28T02:23:58;8.82;;;4.07;;
39518;SDS011;25200;53.394;10.414;2023-04-28T02:26:23;8.18;;;3.90;;
39518;SDS011;25200;53.394;10.414;2023-04-28T02:28:49;7.15;;;3.70;;
39518;SDS011;25200;53.394;10.414;2023-04-28T02:31:16;7.28;;;3.30;;
39518;SDS011;25200;53.394;10.414;2023-04-28T02:33:42;8.60;;;3.28;;
39518;SDS011;25200;53.394;10.414;2023-04-28T02:36:07;7.63;;;3.78;;
39518;SDS011;25200;53.394;10.414;2023-04-28T02:38:34;7.97;;;3.85;;
39518;SDS011;25200;53.394;10.414;2023-04-28T02:41:00;11.75;;;4.00;;
39518;SDS011;25200;53.394;10.414;2023-04-28T02:43:29;7.95;;;3.97;;
39518;SDS011;25200;53.394;10.414;2023-04-28T02:45:55;8.38;;;3.70;;
39518;SDS011;25200;53.394;10.414;2023-04-28T02:48:22;6.50;;;3.38;;
39518;SDS011;25200;53.394;10.414;2023-04-28T02:50:48;7.10;;;3.65;;
39518;SDS011;25200;53.394;10.414;2023-04-28T02:53:14;7.80;;;3.65;;
39518;SDS011;25200;53.394;10.414;2023-04-28T02:55:40;7.47;;;3.92;;
39518;SDS011;25200;53.394;10.414;2023-04-28T02:58:05;7.82;;;3.60;;
39518;SDS011;25200;53.394;10.414;2023-04-28T03:00:31;8.70;;;3.88;;
39518;SDS011;25200;53.394;10.414;2023-04-28T03:02:57;8.43;;;3.63;;
39518;SDS011;25200;53.394;10.414;2023-04-28T03:05:23;7.45;;;3.60;;
39518;SDS011;25200;53.394;10.414;2023-04-28T03:07:49;8.45;;;3.45;;
39518;SDS011;25200;53.394;10.414;2023-04-28T03:10:14;8.10;;;3.83;;
39518;SDS011;25200;53.394;10.414;2023-04-28T03:12:40;8.85;;;3.63;;
39518;SDS011;25200;53.394;10.414;2023-04-28T03:15:06;7.20;;;3.85;;
39518;SDS011;25200;53.394;10.414;2023-04-28T03:17:33;9.10;;;3.72;;
39518;SDS011;25200;53.394;10.414;2023-04-28T03:20:01;7.38;;;3.70;;
39518;SDS011;25200;53.394;10.414;2023-04-28T03:22:27;13.57;;;3.70;;
39518;SDS011;25200;53.394;10.414;2023-04-28T03:24:52;6.20;;;3.58;;
39518;SDS011;25200;53.394;10.414;2023-04-28T03:27:18;8.60;;;3.55;;
39518;SDS011;25200;53.394;10.414;2023-04-28T03:29:44;6.47;;;3.70;;
39518;SDS011;25200;53.394;10.414;2023-04-28T03:32:09;7.05;;;3.63;;
39518;SDS011;25200;53.394;10.414;2023-04-28T03:34:35;9.15;;;3.55;;
39518;SDS011;25200;53.394;10.414;2023-04-28T03:37:00;6.53;;;3.80;;
39518;SDS011;25200;53.394;10.414;2023-04-28T03:39:26;6.70;;;3.67;;
39518;SDS011;25200;53.394;10.414;2023-04-28T03:41:52;7.43;;;3.90;;
39518;SDS011;25200;53.394;10.414;2023-04-28T03:44:17;7.05;;;3.50;;
39518;SDS011;25200;53.394;10.414;2023-04-28T03:46:43;8.10;;;4.10;;
39518;SDS011;25200;53.394;10.414;2023-04-28T03:49:09;8.43;;;3.72;;
39518;SDS011;25200;53.394;10.414;2023-04-28T03:51:34;9.98;;;3.28;;
39518;SDS011;25200;53.394;10.414;2023-04-28T03:54:00;7.88;;;3.75;;
39518;SDS011;25200;53.394;10.414;2023-04-28T03:56:26;9.25;;;3.90;;
39518;SDS011;25200;53.394;10.414;2023-04-28T03:58:51;9.50;;;3.80;;
39518;SDS011;25200;53.394;10.414;2023-04-28T04:01:17;10.27;;;3.63;;
39518;SDS011;25200;53.394;10.414;2023-04-28T04:03:43;7.72;;;3.47;;
39518;SDS011;25200;53.394;10.414;2023-04-28T04:06:08;8.77;;;3.75;;
39518;SDS011;25200;53.394;10.414;2023-04-28T04:08:34;6.85;;;3.42;;
39518;SDS011;25200;53.394;10.414;2023-04-28T04:11:00;6.72;;;3.35;;
39518;SDS011;25200;53.394;10.414;2023-04-28T04:13:25;6.97;;;3.25;;
39518;SDS011;25200;53.394;10.414;2023-04-28T04:15:51;7.75;;;3.53;;
39518;SDS011;25200;53.394;10.414;2023-04-28T04:18:17;6.47;;;3.20;;
39518;SDS011;25200;53.394;10.414;2023-04-28T04:20:43;8.80;;;3.55;;
39518;SDS011;25200;53.394;10.414;2023-04-28T04:23:08;9.05;;;3.60;;
39518;SDS011;25200;53.394;10.414;2023-04-28T04:25:34;6.88;;;3.35;;
39518;SDS011;25200;53.394;10.414;2023-04-28T04:28:00;7.80;;;3.75;;
39518;SDS011;25200;53.394;10.414;2023-04-28T04:30:26;7.13;;;3.67;;
39518;SDS011;25200;53.394;10.414;2023-04-28T04:32:51;6.45;;;3.20;;
39518;SDS011;25200;53.394;10.414;2023-04-28T04:35:17;10.48;;;3.38;;
39518;SDS011;25200;53.394;10.414;2023-04-28T04:37:43;7.20;;;3.58;;
39518;SDS011;25200;53.394;10.414;2023-04-28T04:40:08;8.77;;;3.13;;
39518;SDS011;25200;53.394;10.414;2023-04-28T04:42:34;6.25;;;3.03;;
39518;SDS011;25200;53.394;10.414;2023-04-28T04:45:00;7.90;;;3.10;;
39518;SDS011;25200;53.394;10.414;2023-04-28T04:47:26;6.82;;;3.45;;
39518;SDS011;25200;53.394;10.414;2023-04-28T04:49:52;6.63;;;2.90;;
39518;SDS011;25200;53.394;10.414;2023-04-28T04:52:17;6.93;;;3.00;;
39518;SDS011;25200;53.394;10.414;2023-04-28T04:54:43;6.60;;;3.05;;
39518;SDS011;25200;53.394;10.414;2023-04-28T04:57:10;8.10;;;3.38;;
39518;SDS011;25200;53.394;10.414;2023-04-28T04:59:37;7.30;;;3.40;;
39518;SDS011;25200;53.394;10.414;2023-04-28T05:02:02;7.80;;;3.47;;
39518;SDS011;25200;53.394;10.414;2023-04-28T05:04:28;7.80;;;3.10;;
39518;SDS011;25200;53.394;10.414;2023-04-28T05:06:53;7.13;;;3.35;;
39518;SDS011;25200;53.394;10.414;2023-04-28T05:09:19;6.63;;;3.28;;
39518;SDS011;25200;53.394;10.414;2023-04-28T05:11:45;8.00;;;3.40;;
39518;SDS011;25200;53.394;10.414;2023-04-28T05:14:10;6.88;;;3.10;;
39518;SDS011;25200;53.394;10.414;2023-04-28T05:16:37;6.68;;;3.08;;
39518;SDS011;25200;53.394;10.414;2023-04-28T05:19:03;12.52;;;3.47;;
39518;SDS011;25200;53.394;10.414;2023-04-28T05:21:29;7.38;;;3.25;;
39518;SDS011;25200;53.394;10.414;2023-04-28T05:23:55;8.30;;;3.50;;
39518;SDS011;25200;53.394;10.414;2023-04-28T05:26:21;7.15;;;2.97;;
39518;SDS011;25200;53.394;10.414;2023-04-28T05:28:47;6.47;;;3.03;;
39518;SDS011;25200;53.394;10.414;2023-04-28T05:31:13;6.85;;;3.17;;
39518;SDS011;25200;53.394;10.414;2023-04-28T05:33:39;6.53;;;3.13;;
39518;SDS011;25200;53.394;10.414;2023-04-28T05:36:05;6.55;;;3.00;;
39518;SDS011;25200;53.394;10.414;2023-04-28T05:38:31;6.97;;;3.25;;
39518;SDS011;25200;53.394;10.414;2023-04-28T05:40:57;6.25;;;3.03;;
39518;SDS011;25200;53.394;10.414;2023-04-28T05:43:23;7.00;;;3.15;;
39518;SDS011;25200;53.394;10.414;2023-04-28T05:45:49;7.55;;;2.88;;
39518;SDS011;25200;53.394;10.414;2023-04-28T05:48:14;7.68;;;2.80;;
39518;SDS011;25200;53.394;10.414;2023-04-28T05:50:40;7.47;;;3.05;;
39518;SDS011;25200;53.394;10.414;2023-04-28T05:53:06;6.60;;;3.00;;
39518;SDS011;25200;53.394;10.414;2023-04-28T05:55:32;8.15;;;3.28;;
39518;SDS011;25200;53.394;10.414;2023-04-28T05:58:00;6.20;;;2.83;;
39518;SDS011;25200;53.394;10.414;2023-04-28T06:00:29;6.25;;;2.65;;
39518;SDS011;25200;53.394;10.414;2023-04-28T06:02:55;6.63;;;2.63;;
39518;SDS011;25200;53.394;10.414;2023-04-28T06:05:21;5.85;;;2.95;;
39518;SDS011;25200;53.394;10.414;2023-04-28T06:07:47;5.65;;;2.70;;
39518;SDS011;25200;53.394;10.414;2023-04-28T06:10:12;8.95;;;3.22;;
39518;SDS011;25200;53.394;10.414;2023-04-28T06:12:38;6.63;;;2.50;;
39518;SDS011;25200;53.394;10.414;2023-04-28T06:15:04;7.43;;;2.80;;
39518;SDS011;25200;53.394;10.414;2023-04-28T06:17:30;7.97;;;2.97;;
39518;SDS011;25200;53.394;10.414;2023-04-28T06:19:57;5.65;;;2.70;;
39518;SDS011;25200;53.394;10.414;2023-04-28T06:22:26;5.18;;;2.45;;
39518;SDS011;25200;53.394;10.414;2023-04-28T06:24:51;7.82;;;2.47;;
39518;SDS011;25200;53.394;10.414;2023-04-28T06:27:17;7.53;;;2.53;;
39518;SDS011;25200;53.394;10.414;2023-04-28T06:29:43;5.65;;;2.65;;
39518;SDS011;25200;53.394;10.414;2023-04-28T06:32:09;6.70;;;2.55;;
39518;SDS011;25200;53.394;10.414;2023-04-28T06:34:35;7.28;;;3.00;;
39518;SDS011;25200;53.394;10.414;2023-04-28T06:37:01;6.80;;;2.42;;
39518;SDS011;25200;53.394;10.414;2023-04-28T06:39:27;5.90;;;2.63;;
39518;SDS011;25200;53.394;10.414;2023-04-28T06:41:53;4.93;;;2.60;;
39518;SDS011;25200;53.394;10.414;2023-04-28T06:44:18;9.40;;;2.95;;
39518;SDS011;25200;53.394;10.414;2023-04-28T06:46:44;6.85;;;2.30;;
39518;SDS011;25200;53.394;10.414;2023-04-28T06:49:10;6.20;;;2.60;;
39518;SDS011;25200;53.394;10.414;2023-04-28T06:51:38;5.22;;;2.35;;
39518;SDS011;25200;53.394;10.414;2023-04-28T06:54:04;6.60;;;2.95;;
39518;SDS011;25200;53.394;10.414;2023-04-28T06:56:30;8.65;;;3.05;;
39518;SDS011;25200;53.394;10.414;2023-04-28T06:58:56;8.27;;;2.97;;
39518;SDS011;25200;53.394;10.414;2023-04-28T07:01:23;6.38;;;3.03;;
39518;SDS011;25200;53.394;10.414;2023-04-28T07:03:49;6.72;;;2.65;;
39518;SDS011;25200;53.394;10.414;2023-04-28T07:06:14;5.63;;;2.90;;
39518;SDS011;25200;53.394;10.414;2023-04-28T07:08:40;6.43;;;2.72;;
39518;SDS011;25200;53.394;10.414;2023-04-28T07:11:07;6.30;;;2.72;;
39518;SDS011;25200;53.394;10.414;2023-04-28T07:13:33;5.03;;;2.60;;
39518;SDS011;25200;53.394;10.414;2023-04-28T07:15:59;6.28;;;2.75;;
39518;SDS011;25200;53.394;10.414;2023-04-28T07:18:25;6.25;;;2.60;;
39518;SDS011;25200;53.394;10.414;2023-04-28T07:20:50;5.30;;;2.58;;
39518;SDS011;25200;53.394;10.414;2023-04-28T07:23:16;7.45;;;2.80;;
39518;SDS011;25200;53.394;10.414;2023-04-28T07:25:42;7.72;;;2.80;;
39518;SDS011;25200;53.394;10.414;2023-04-28T07:28:08;5.00;;;2.40;;
39518;SDS011;25200;53.394;10.414;2023-04-28T07:30:34;6.82;;;2.72;;
39518;SDS011;25200;53.394;10.414;2023-04-28T07:33:00;4.82;;;2.42;;
39518;SDS011;25200;53.394;10.414;2023-04-28T07:35:26;6.03;;;2.50;;
39518;SDS011;25200;53.394;10.414;2023-04-28T07:37:53;6.55;;;2.55;;
39518;SDS011;25200;53.394;10.414;2023-04-28T07:40:19;6.60;;;2.55;;
39518;SDS011;25200;53.394;10.414;2023-04-28T07:42:45;5.00;;;2.60;;
39518;SDS011;25200;53.394;10.414;2023-04-28T07:45:11;5.03;;;2.47;;
39518;SDS011;25200;53.394;10.414;2023-04-28T07:47:38;5.97;;;2.40;;
39518;SDS011;25200;53.394;10.414;2023-04-28T07:50:04;6.35;;;2.90;;
39518;SDS011;25200;53.394;10.414;2023-04-28T07:52:31;6.03;;;2.58;;
39518;SDS011;25200;53.394;10.414;2023-04-28T07:54:57;6.38;;;2.55;;
39518;SDS011;25200;53.394;10.414;2023-04-28T07:57:23;4.93;;;2.60;;
39518;SDS011;25200;53.394;10.414;2023-04-28T07:59:50;7.22;;;2.60;;
39518;SDS011;25200;53.394;10.414;2023-04-28T08:02:15;5.68;;;2.60;;
39518;SDS011;25200;53.394;10.414;2023-04-28T08:04:41;6.28;;;2.42;;
39518;SDS011;25200;53.394;10.414;2023-04-28T08:07:10;5.93;;;2.55;;
39518;SDS011;25200;53.394;10.414;2023-04-28T08:09:36;8.43;;;2.53;;
39518;SDS011;25200;53.394;10.414;2023-04-28T08:12:02;7.18;;;2.30;;
39518;SDS011;25200;53.394;10.414;2023-04-28T08:14:28;5.45;;;2.28;;
39518;SDS011;25200;53.394;10.414;2023-04-28T08:16:53;6.85;;;2.40;;
39518;SDS011;25200;53.394;10.414;2023-04-28T08:19:19;6.65;;;2.83;;
39518;SDS011;25200;53.394;10.414;2023-04-28T08:21:45;5.40;;;2.58;;
39518;SDS011;25200;53.394;10.414;2023-04-28T08:24:11;6.93;;;2.63;;
39518;SDS011;25200;53.394;10.414;2023-04-28T08:26:37;7.05;;;2.53;;
39518;SDS011;25200;53.394;10.414;2023-04-28T08:29:02;6.35;;;2.50;;
39518;SDS011;25200;53.394;10.414;2023-04-28T08:31:28;6.63;;;2.20;;
39518;SDS011;25200;53.394;10.414;2023-04-28T08:33:54;5.60;;;2.58;;
39518;SDS011;25200;53.394;10.414;2023-04-28T08:36:20;5.43;;;2.40;;
39518;SDS011;25200;53.394;10.414;2023-04-28T08:38:47;6.95;;;2.45;;
39518;SDS011;25200;53.394;10.414;2023-04-28T08:41:16;5.05;;;2.70;;
39518;SDS011;25200;53.394;10.414;2023-04-28T08:43:43;4.10;;;2.25;;
39518;SDS011;25200;53.394;10.414;2023-04-28T08:46:09;5.53;;;2.40;;
39518;SDS011;25200;53.394;10.414;2023-04-28T08:48:42;5.93;;;2.55;;
39518;SDS011;25200;53.394;10.414;2023-04-28T08:51:15;5.15;;;2.40;;
39518;SDS011;25200;53.394;10.414;2023-04-28T08:53:47;5.47;;;2.70;;
39518;SDS011;25200;53.394;10.414;2023-04-28T08:56:15;6.03;;;2.85;;
39518;SDS011;25200;53.394;10.414;2023-04-28T08:58:42;7.45;;;2.85;;
39518;SDS011;25200;53.394;10.414;2023-04-28T09:01:08;7.47;;;2.42;;
39518;SDS011;25200;53.394;10.414;2023-04-28T09:03:34;6.22;;;2.80;;
39518;SDS011;25200;53.394;10.414;2023-04-28T09:06:00;6.50;;;2.80;;
39518;SDS011;25200;53.394;10.414;2023-04-28T09:08:26;6.40;;;2.40;;
39518;SDS011;25200;53.394;10.414;2023-04-28T09:11:09;7.10;;;2.72;;
39518;SDS011;25200;53.394;10.414;2023-04-28T09:13:37;7.90;;;3.00;;
39518;SDS011;25200;53.394;10.414;2023-04-28T09:16:04;6.60;;;2.67;;
39518;SDS011;25200;53.394;10.414;2023-04-28T09:18:30;7.55;;;2.90;;
39518;SDS011;25200;53.394;10.414;2023-04-28T09:21:03;5.93;;;2.80;;
39518;SDS011;25200;53.394;10.414;2023-04-28T09:23:30;6.13;;;2.80;;
39518;SDS011;25200;53.394;10.414;2023-04-28T09:26:05;7.68;;;2.80;;
39518;SDS011;25200;53.394;10.414;2023-04-28T09:28:32;8.93;;;2.92;;
39518;SDS011;25200;53.394;10.414;2023-04-28T09:30:58;5.25;;;2.85;;
39518;SDS011;25200;53.394;10.414;2023-04-28T09:33:24;6.63;;;3.03;;
39518;SDS011;25200;53.394;10.414;2023-04-28T09:35:51;6.18;;;2.92;;
39518;SDS011;25200;53.394;10.414;2023-04-28T09:38:18;5.88;;;2.78;;
39518;SDS011;25200;53.394;10.414;2023-04-28T09:45:49;6.57;;;2.70;;
39518;SDS011;25200;53.394;10.414;2023-04-28T09:48:15;6.57;;;2.80;;
39518;SDS011;25200;53.394;10.414;2023-04-28T09:50:41;8.90;;;3.33;;
39518;SDS011;25200;53.394;10.414;2023-04-28T09:53:06;6.63;;;2.97;;
39518;SDS011;25200;53.394;10.414;2023-04-28T09:55:38;5.75;;;2.85;;
39518;SDS011;25200;53.394;10.414;2023-04-28T09:58:08;8.95;;;2.47;;
39518;SDS011;25200;53.394;10.414;2023-04-28T10:00:36;8.45;;;2.88;;
39518;SDS011;25200;53.394;10.414;2023-04-28T10:03:04;5.20;;;2.75;;
39518;SDS011;25200;53.394;10.414;2023-04-28T10:05:31;6.35;;;2.85;;
39518;SDS011;25200;53.394;10.414;2023-04-28T10:07:59;7.13;;;2.83;;
39518;SDS011;25200;53.394;10.414;2023-04-28T10:10:26;6.05;;;2.85;;
39518;SDS011;25200;53.394;10.414;2023-04-28T10:12:53;6.97;;;2.65;;
39518;SDS011;25200;53.394;10.414;2023-04-28T10:15:19;7.07;;;3.00;;
39518;SDS011;25200;53.394;10.414;2023-04-28T10:17:46;8.50;;;2.85;;
39518;SDS011;25200;53.394;10.414;2023-04-28T10:20:14;5.63;;;2.70;;
39518;SDS011;25200;53.394;10.414;2023-04-28T10:22:51;7.00;;;3.13;;
39518;SDS011;25200;53.394;10.414;2023-04-28T10:25:26;7.15;;;2.67;;
39518;SDS011;25200;53.394;10.414;2023-04-28T10:27:56;6.47;;;2.70;;
39518;SDS011;25200;53.394;10.414;2023-04-28T10:30:24;6.60;;;3.00;;
39518;SDS011;25200;53.394;10.414;2023-04-28T10:38:15;7.00;;;2.90;;
39518;SDS011;25200;53.394;10.414;2023-04-28T10:40:47;6.50;;;2.80;;
39518;SDS011;25200;53.394;10.414;2023-04-28T10:46:03;6.38;;;2.97;;
39518;SDS011;25200;53.394;10.414;2023-04-28T10:58:39;7.53;;;2.95;;
39518;SDS011;25200;53.394;10.414;2023-04-28T11:06:29;5.97;;;2.85;;
39518;SDS011;25200;53.394;10.414;2023-04-28T11:12:24;7.50;;;3.00;;
39518;SDS011;25200;53.394;10.414;2023-04-28T11:16:51;7.03;;;3.30;;
39518;SDS011;25200;53.394;10.414;2023-04-28T11:19:24;5.38;;;2.90;;
39518;SDS011;25200;53.394;10.414;2023-04-28T11:21:52;8.90;;;3.08;;
39518;SDS011;25200;53.394;10.414;2023-04-28T11:24:20;5.57;;;3.10;;
39518;SDS011;25200;53.394;10.414;2023-04-28T11:26:46;6.25;;;3.10;;
39518;SDS011;25200;53.394;10.414;2023-04-28T11:29:12;8.70;;;2.85;;
39518;SDS011;25200;53.394;10.414;2023-04-28T11:31:39;7.38;;;3.03;;
39518;SDS011;25200;53.394;10.414;2023-04-28T11:34:17;9.73;;;3.45;;
39518;SDS011;25200;53.394;10.414;2023-04-28T11:36:43;8.00;;;3.30;;
39518;SDS011;25200;53.394;10.414;2023-04-28T11:39:10;6.55;;;3.30;;
39518;SDS011;25200;53.394;10.414;2023-04-28T11:41:37;5.57;;;2.70;;
39518;SDS011;25200;53.394;10.414;2023-04-28T11:46:45;5.53;;;2.63;;
39518;SDS011;25200;53.394;10.414;2023-04-28T11:49:17;7.13;;;3.33;;
39518;SDS011;25200;53.394;10.414;2023-04-28T11:51:43;5.72;;;3.15;;
39518;SDS011;25200;53.394;10.414;2023-04-28T11:54:11;7.05;;;3.63;;
39518;SDS011;25200;53.394;10.414;2023-04-28T11:56:39;7.80;;;2.92;;
39518;SDS011;25200;53.394;10.414;2023-04-28T12:01:32;9.15;;;3.63;;
39518;SDS011;25200;53.394;10.414;2023-04-28T12:04:01;6.55;;;2.83;;
39518;SDS011;25200;53.394;10.414;2023-04-28T12:06:27;6.82;;;3.50;;
39518;SDS011;25200;53.394;10.414;2023-04-28T12:08:53;7.38;;;2.97;;
39518;SDS011;25200;53.394;10.414;2023-04-28T12:11:19;8.48;;;3.10;;
39518;SDS011;25200;53.394;10.414;2023-04-28T12:14:04;6.40;;;3.00;;
39518;SDS011;25200;53.394;10.414;2023-04-28T12:16:37;8.65;;;3.50;;
39518;SDS011;25200;53.394;10.414;2023-04-28T12:19:07;8.38;;;3.38;;
39518;SDS011;25200;53.394;10.414;2023-04-28T12:21:35;6.88;;;3.38;;
39518;SDS011;25200;53.394;10.414;2023-04-28T12:24:12;5.80;;;3.35;;
39518;SDS011;25200;53.394;10.414;2023-04-28T12:26:41;10.63;;;3.28;;
39518;SDS011;25200;53.394;10.414;2023-04-28T12:29:07;9.15;;;3.50;;
39518;SDS011;25200;53.394;10.414;2023-04-28T12:31:46;9.90;;;3.63;;
39518;SDS011;25200;53.394;10.414;2023-04-28T12:34:16;6.63;;;3.40;;
39518;SDS011;25200;53.394;10.414;2023-04-28T12:36:42;7.25;;;3.35;;
39518;SDS011;25200;53.394;10.414;2023-04-28T12:39:13;6.15;;;3.40;;
39518;SDS011;25200;53.394;10.414;2023-04-28T12:41:44;6.68;;;3.20;;
39518;SDS011;25200;53.394;10.414;2023-04-28T12:44:10;5.75;;;3.47;;
39518;SDS011;25200;53.394;10.414;2023-04-28T12:46:35;6.82;;;3.15;;
39518;SDS011;25200;53.394;10.414;2023-04-28T12:49:01;7.97;;;3.70;;
39518;SDS011;25200;53.394;10.414;2023-04-28T12:51:27;7.57;;;3.70;;
39518;SDS011;25200;53.394;10.414;2023-04-28T12:53:53;7.75;;;3.38;;
39518;SDS011;25200;53.394;10.414;2023-04-28T12:56:19;7.15;;;3.70;;
39518;SDS011;25200;53.394;10.414;2023-04-28T12:58:45;7.05;;;3.45;;
39518;SDS011;25200;53.394;10.414;2023-04-28T13:01:10;7.15;;;3.72;;
39518;SDS011;25200;53.394;10.414;2023-04-28T13:03:36;6.47;;;3.50;;
39518;SDS011;25200;53.394;10.414;2023-04-28T13:06:01;8.38;;;3.92;;
39518;SDS011;25200;53.394;10.414;2023-04-28T13:08:27;8.13;;;3.72;;
39518;SDS011;25200;53.394;10.414;2023-04-28T13:10:57;9.00;;;3.72;;
39518;SDS011;25200;53.394;10.414;2023-04-28T13:13:23;12.68;;;3.53;;
39518;SDS011;25200;53.394;10.414;2023-04-28T13:15:49;9.13;;;3.95;;
39518;SDS011;25200;53.394;10.414;2023-04-28T13:18:15;10.02;;;3.50;;
39518;SDS011;25200;53.394;10.414;2023-04-28T13:20:41;8.75;;;4.13;;
39518;SDS011;25200;53.394;10.414;2023-04-28T13:23:07;8.60;;;3.92;;
39518;SDS011;25200;53.394;10.414;2023-04-28T13:25:32;8.35;;;3.83;;
39518;SDS011;25200;53.394;10.414;2023-04-28T13:27:58;7.93;;;4.40;;
39518;SDS011;25200;53.394;10.414;2023-04-28T13:30:24;10.35;;;4.05;;
39518;SDS011;25200;53.394;10.414;2023-04-28T13:32:50;14.90;;;4.15;;
39518;SDS011;25200;53.394;10.414;2023-04-28T13:35:16;9.55;;;4.13;;
39518;SDS011;25200;53.394;10.414;2023-04-28T13:37:42;8.52;;;3.80;;
39518;SDS011;25200;53.394;10.414;2023-04-28T13:40:10;10.05;;;4.00;;
39518;SDS011;25200;53.394;10.414;2023-04-28T13:42:36;13.48;;;3.90;;
39518;SDS011;25200;53.394;10.414;2023-04-28T13:45:02;9.77;;;4.50;;
39518;SDS011;25200;53.394;10.414;2023-04-28T13:47:28;9.38;;;3.90;;
39518;SDS011;25200;53.394;10.414;2023-04-28T13:49:56;10.25;;;3.95;;
39518;SDS011;25200;53.394;10.414;2023-04-28T13:52:24;11.88;;;4.07;;
39518;SDS011;25200;53.394;10.414;2023-04-28T13:54:50;10.55;;;4.05;;
39518;SDS011;25200;53.394;10.414;2023-04-28T13:57:16;8.35;;;4.47;;
39518;SDS011;25200;53.394;10.414;2023-04-28T13:59:42;10.45;;;4.18;;
39518;SDS011;25200;53.394;10.414;2023-04-28T14:02:07;10.48;;;4.53;;
39518;SDS011;25200;53.394;10.414;2023-04-28T14:04:35;37.30;;;6.65;;
39518;SDS011;25200;53.394;10.414;2023-04-28T14:07:01;40.15;;;6.20;;
39518;SDS011;25200;53.394;10.414;2023-04-28T14:09:27;32.92;;;5.75;;
39518;SDS011;25200;53.394;10.414;2023-04-28T14:11:52;18.42;;;5.40;;
39518;SDS011;25200;53.394;10.414;2023-04-28T14:14:20;11.10;;;4.45;;
39518;SDS011;25200;53.394;10.414;2023-04-28T14:16:46;11.50;;;4.30;;
39518;SDS011;25200;53.394;10.414;2023-04-28T14:19:12;8.52;;;4.25;;
39518;SDS011;25200;53.394;10.414;2023-04-28T14:21:41;9.73;;;4.32;;
39518;SDS011;25200;53.394;10.414;2023-04-28T14:24:07;10.25;;;4.40;;
39518;SDS011;25200;53.394;10.414;2023-04-28T14:26:34;10.73;;;4.35;;
39518;SDS011;25200;53.394;10.414;2023-04-28T14:29:00;13.93;;;4.90;;
39518;SDS011;25200;53.394;10.414;2023-04-28T14:31:26;11.77;;;4.55;;
39518;SDS011;25200;53.394;10.414;2023-04-28T14:33:52;8.70;;;4.00;;
39518;SDS011;25200;53.394;10.414;2023-04-28T14:36:18;8.32;;;4.18;;
39518;SDS011;25200;53.394;10.414;2023-04-28T14:38:44;10.52;;;4.05;;
39518;SDS011;25200;53.394;10.414;2023-04-28T14:41:09;9.77;;;4.13;;
39518;SDS011;25200;53.394;10.414;2023-04-28T14:43:35;7.78;;;3.88;;
39518;SDS011;25200;53.394;10.414;2023-04-28T14:46:02;15.48;;;4.43;;
39518;SDS011;25200;53.394;10.414;2023-04-28T14:48:28;9.18;;;4.10;;
39518;SDS011;25200;53.394;10.414;2023-04-28T14:50:56;9.98;;;4.20;;
39518;SDS011;25200;53.394;10.414;2023-04-28T14:53:22;8.10;;;3.92;;
39518;SDS011;25200;53.394;10.414;2023-04-28T14:55:48;8.80;;;3.97;;
39518;SDS011;25200;53.394;10.414;2023-04-28T14:58:14;9.18;;;3.97;;
39518;SDS011;25200;53.394;10.414;2023-04-28T15:00:39;9.88;;;4.35;;
39518;SDS011;25200;53.394;10.414;2023-04-28T15:03:05;8.77;;;3.85;;
39518;SDS011;25200;53.394;10.414;2023-04-28T15:05:31;8.80;;;4.20;;
39518;SDS011;25200;53.394;10.414;2023-04-28T15:07:57;9.15;;;4.38;;